createdAt,value
2023-04-10T00:00:06.837Z,6.00
2023-04-10T00:02:35.229Z,5.33
2023-04-10T00:05:03.850Z,6.03
2023-04-10T00:07:33.219Z,5.50
2023-04-10T00:10:01.149Z,5.30
2023-04-10T00:12:29.134Z,5.80
2023-04-10T00:14:57.432Z,5.43
2023-04-10T00:17:25.456Z,5.87
2023-04-10T00:19:53.471Z,4.53
2023-04-10T00:22:21.521Z,5.33
2023-04-10T00:24:53.642Z,4.83
2023-04-10T00:27:21.588Z,6.13
2023-04-10T00:29:49.603Z,5.13
2023-04-10T00:32:17.642Z,6.20
2023-04-10T00:34:45.729Z,5.63
2023-04-10T00:37:13.649Z,5.40
2023-04-10T00:39:41.708Z,5.90
2023-04-10T00:42:11.329Z,5.40
2023-04-10T00:44:39.296Z,5.43
2023-04-10T00:47:08.380Z,5.83
2023-04-10T00:49:36.509Z,5.57
2023-04-10T00:52:04.527Z,5.43
2023-04-10T00:54:33.174Z,5.00
2023-04-10T00:57:01.730Z,5.07
2023-04-10T00:59:31.554Z,6.40
2023-04-10T01:02:00.038Z,6.00
2023-04-10T01:04:29.781Z,6.17
2023-04-10T01:07:01.072Z,5.50
2023-04-10T01:09:37.800Z,6.33
2023-04-10T01:12:16.112Z,5.30
2023-04-10T01:14:55.127Z,5.27
2023-04-10T01:17:32.511Z,5.20
2023-04-10T01:20:08.120Z,5.10
2023-04-10T01:22:38.861Z,5.30
2023-04-10T01:25:29.528Z,5.43
2023-04-10T01:28:12.276Z,5.47
2023-04-10T01:30:43.028Z,5.40
2023-04-10T01:33:14.549Z,5.63
2023-04-10T01:35:44.549Z,5.43
2023-04-10T01:38:16.943Z,5.67
2023-04-10T01:40:50.072Z,5.90
2023-04-10T01:43:19.255Z,6.10
2023-04-10T01:45:52.208Z,5.90
2023-04-10T01:48:20.810Z,5.47
2023-04-10T01:50:49.970Z,5.80
2023-04-10T01:53:18.172Z,5.80
2023-04-10T01:55:46.470Z,5.13
2023-04-10T01:58:14.598Z,6.00
2023-04-10T02:00:43.887Z,5.80
2023-04-10T02:03:13.443Z,5.80
2023-04-10T02:05:53.436Z,5.90
2023-04-10T02:08:27.356Z,5.60
2023-04-10T02:10:59.182Z,5.17
2023-04-10T02:13:30.079Z,5.23
2023-04-10T02:16:03.945Z,5.63
2023-04-10T02:18:35.819Z,6.27
2023-04-10T02:21:04.462Z,6.10
2023-04-10T02:23:32.421Z,5.50
2023-04-10T02:26:06.652Z,5.30
2023-04-10T02:28:34.866Z,5.50
2023-04-10T02:31:02.839Z,5.80
2023-04-10T02:33:31.113Z,5.70
2023-04-10T02:36:01.561Z,5.53
2023-04-10T02:38:29.570Z,5.90
2023-04-10T02:40:57.590Z,5.97
2023-04-10T02:43:25.597Z,5.53
2023-04-10T02:45:53.682Z,6.00
2023-04-10T02:48:21.698Z,6.10
2023-04-10T02:50:49.636Z,5.30
2023-04-10T02:53:19.918Z,6.03
2023-04-10T02:55:47.881Z,5.30
2023-04-10T02:58:15.870Z,5.20
2023-04-10T03:00:49.632Z,5.73
2023-04-10T03:03:17.987Z,5.63
2023-04-10T03:05:49.283Z,5.00
2023-04-10T03:08:18.871Z,5.90
2023-04-10T03:10:49.240Z,6.07
2023-04-10T03:13:17.367Z,6.57
2023-04-10T03:15:45.447Z,5.43
2023-04-10T03:18:13.454Z,5.90
2023-04-10T03:20:43.190Z,5.00
2023-04-10T03:23:13.013Z,6.20
2023-04-10T03:25:42.379Z,5.30
2023-04-10T03:28:10.417Z,6.17
2023-04-10T03:30:38.510Z,5.70
2023-04-10T03:33:06.499Z,6.20
2023-04-10T03:35:34.493Z,5.90
2023-04-10T03:38:02.469Z,5.30
2023-04-10T03:40:30.697Z,5.60
2023-04-10T03:42:59.967Z,6.00
2023-04-10T03:45:28.000Z,5.67
2023-04-10T03:47:56.249Z,5.30
2023-04-10T03:50:24.259Z,5.93
2023-04-10T03:52:52.636Z,5.63
2023-04-10T03:55:21.022Z,5.40
2023-04-10T03:57:49.907Z,5.57
2023-04-10T04:00:20.024Z,4.80
2023-04-10T04:02:48.389Z,5.67
2023-04-10T04:05:16.702Z,5.70
2023-04-10T04:07:44.624Z,5.77
2023-04-10T04:10:12.701Z,5.20
2023-04-10T04:12:40.644Z,5.77
2023-04-10T04:15:09.606Z,5.70
2023-04-10T04:17:39.039Z,5.50
2023-04-10T04:20:08.378Z,4.97
2023-04-10T04:22:36.374Z,5.30
2023-04-10T04:25:08.785Z,5.20
2023-04-10T04:27:36.768Z,5.37
2023-04-10T04:30:05.100Z,5.03
2023-04-10T04:32:33.175Z,5.13
2023-04-10T04:35:02.648Z,4.83
2023-04-10T04:37:30.588Z,5.60
2023-04-10T04:39:58.502Z,4.80
2023-04-10T04:42:26.413Z,5.10
2023-04-10T04:44:54.350Z,4.80
2023-04-10T04:47:24.238Z,5.40
2023-04-10T04:49:52.302Z,5.27
2023-04-10T04:52:21.643Z,5.37
2023-04-10T04:54:49.590Z,5.67
2023-04-10T04:57:17.533Z,5.67
2023-04-10T04:59:45.546Z,5.60
2023-04-10T05:02:13.567Z,5.23
2023-04-10T05:04:42.089Z,4.80
2023-04-10T05:07:10.152Z,5.17
2023-04-10T05:09:39.476Z,5.13
2023-04-10T05:12:07.481Z,4.47
2023-04-10T05:14:48.492Z,5.10
2023-04-10T05:17:16.924Z,4.83
2023-04-10T05:19:44.857Z,4.60
2023-04-10T05:22:12.832Z,5.67
2023-04-10T05:24:42.132Z,5.37
2023-04-10T05:27:10.374Z,5.50
2023-04-10T05:29:38.359Z,5.17
2023-04-10T05:32:06.635Z,5.60
2023-04-10T05:34:34.662Z,5.40
2023-04-10T05:37:02.756Z,5.77
2023-04-10T05:39:30.728Z,4.90
2023-04-10T05:41:59.974Z,5.30
2023-04-10T05:44:28.038Z,4.67
2023-04-10T05:46:56.192Z,4.83
2023-04-10T05:49:24.177Z,5.10
2023-04-10T05:51:53.428Z,5.20
2023-04-10T05:54:21.539Z,5.37
2023-04-10T05:56:49.548Z,5.40
2023-04-10T05:59:18.837Z,4.83
2023-04-10T06:01:47.219Z,4.40
2023-04-10T06:04:15.573Z,4.83
2023-04-10T06:06:43.872Z,4.90
2023-04-10T06:09:11.896Z,4.70
2023-04-10T06:11:39.886Z,5.20
2023-04-10T06:14:08.002Z,5.70
2023-04-10T06:16:37.397Z,4.23
2023-04-10T06:19:05.605Z,4.90
2023-04-10T06:21:33.589Z,5.60
2023-04-10T06:24:01.564Z,5.00
2023-04-10T06:26:29.567Z,5.10
2023-04-10T06:28:57.570Z,5.50
2023-04-10T06:31:25.858Z,5.20
2023-04-10T06:34:00.129Z,5.00
2023-04-10T06:36:28.678Z,4.50
2023-04-10T06:38:56.756Z,3.37
2023-04-10T06:41:24.713Z,4.30
2023-04-10T06:43:54.048Z,5.20
2023-04-10T06:46:22.012Z,4.57
2023-04-10T06:48:50.110Z,5.10
2023-04-10T06:51:19.358Z,4.47
2023-04-10T06:53:47.410Z,4.90
2023-04-10T06:56:15.525Z,5.33
2023-04-10T06:58:43.478Z,5.10
2023-04-10T07:01:11.544Z,5.10
2023-04-10T07:03:39.531Z,4.80
2023-04-10T07:06:08.386Z,5.10
2023-04-10T07:08:37.707Z,5.30
2023-04-10T07:11:05.966Z,5.00
2023-04-10T07:13:35.551Z,4.40
2023-04-10T07:16:03.618Z,4.77
2023-04-10T07:18:31.640Z,4.50
2023-04-10T07:20:59.637Z,5.00
2023-04-10T07:23:27.604Z,4.63
2023-04-10T07:25:58.272Z,4.80
2023-04-10T07:28:26.296Z,4.60
2023-04-10T07:30:54.306Z,4.20
2023-04-10T07:33:22.301Z,4.40
2023-04-10T07:35:50.322Z,4.83
2023-04-10T07:38:19.397Z,5.20
2023-04-10T07:40:47.675Z,5.17
2023-04-10T07:43:16.986Z,4.60
2023-04-10T07:45:44.962Z,5.20
2023-04-10T07:48:12.889Z,4.43
2023-04-10T07:50:40.961Z,4.90
2023-04-10T07:53:08.981Z,5.60
2023-04-10T07:55:39.544Z,5.20
2023-04-10T07:58:07.684Z,4.40
2023-04-10T08:00:37.336Z,4.20
2023-04-10T08:03:05.874Z,4.00
2023-04-10T08:05:34.107Z,5.00
2023-04-10T08:08:02.103Z,4.80
2023-04-10T08:10:30.141Z,4.43
2023-04-10T08:12:58.140Z,3.20
2023-04-10T08:15:26.249Z,4.60
2023-04-10T08:17:55.579Z,4.93
2023-04-10T08:20:23.658Z,4.73
2023-04-10T08:22:51.715Z,4.70
2023-04-10T08:25:19.682Z,5.00
2023-04-10T08:27:47.762Z,4.57
2023-04-10T08:30:15.755Z,4.30
2023-04-10T08:32:43.727Z,4.40
2023-04-10T08:35:13.077Z,4.30
2023-04-10T08:37:41.489Z,3.67
2023-04-10T08:40:10.238Z,5.00
2023-04-10T08:42:38.125Z,4.43
2023-04-10T08:45:06.926Z,4.33
2023-04-10T08:47:38.548Z,4.30
2023-04-10T08:50:08.846Z,4.17
2023-04-10T08:52:44.257Z,4.80
2023-04-10T08:55:15.063Z,4.10
2023-04-10T08:57:48.014Z,4.57
2023-04-10T09:00:23.606Z,3.63
2023-04-10T09:02:57.986Z,3.67
2023-04-10T09:05:27.793Z,4.60
2023-04-10T09:07:57.194Z,3.90
2023-04-10T09:10:25.266Z,3.63
2023-04-10T09:12:54.289Z,4.37
2023-04-10T09:15:26.486Z,4.20
2023-04-10T09:17:58.891Z,4.07
2023-04-10T09:20:28.073Z,4.57
2023-04-10T09:22:58.255Z,4.10
2023-04-10T09:25:36.555Z,3.70
2023-04-10T09:28:06.207Z,3.63
2023-04-10T09:30:35.688Z,4.20
2023-04-10T09:33:04.112Z,3.77
2023-04-10T09:35:39.368Z,3.90
2023-04-10T09:38:26.347Z,3.73
2023-04-10T09:40:54.910Z,3.70
2023-04-10T09:43:25.923Z,4.03
2023-04-10T09:45:56.298Z,3.23
2023-04-10T09:48:26.721Z,3.63
2023-04-10T09:50:54.668Z,3.83
2023-04-10T09:53:22.944Z,3.43
2023-04-10T09:55:52.238Z,3.87
2023-04-10T09:58:20.144Z,3.70
2023-04-10T10:00:50.078Z,3.40
2023-04-10T10:03:21.060Z,3.57
2023-04-10T10:05:51.760Z,3.60
2023-04-10T10:08:19.878Z,3.07
2023-04-10T10:10:54.465Z,3.50
2023-04-10T10:13:27.993Z,3.40
2023-04-10T10:16:04.531Z,3.30
2023-04-10T10:18:38.075Z,2.80
2023-04-10T10:21:06.952Z,3.00
2023-04-10T10:23:35.706Z,2.83
2023-04-10T10:26:07.101Z,3.00
2023-04-10T10:28:37.606Z,3.07
2023-04-10T10:31:06.735Z,2.73
2023-04-10T10:33:37.242Z,2.90
2023-04-10T10:36:06.310Z,2.93
2023-04-10T10:38:34.990Z,2.40
2023-04-10T10:41:12.094Z,3.30
2023-04-10T10:43:50.676Z,2.97
2023-04-10T10:46:25.748Z,2.80
2023-04-10T10:48:57.894Z,3.13
2023-04-10T10:51:43.353Z,3.10
2023-04-10T10:54:29.653Z,2.87
2023-04-10T10:56:57.669Z,3.10
2023-04-10T10:59:58.302Z,3.23
2023-04-10T11:02:27.143Z,3.00
2023-04-10T11:04:55.445Z,2.80
2023-04-10T11:07:43.475Z,2.87
2023-04-10T11:10:12.791Z,2.93
2023-04-10T11:13:13.838Z,2.70
2023-04-10T11:15:42.816Z,2.87
2023-04-10T11:18:11.423Z,2.80
2023-04-10T11:21:10.444Z,2.43
2023-04-10T11:23:39.317Z,2.53
2023-04-10T11:26:08.615Z,3.10
2023-04-10T11:28:37.909Z,2.67
2023-04-10T11:31:19.868Z,3.03
2023-04-10T11:33:48.788Z,2.40
2023-04-10T11:36:18.566Z,2.40
2023-04-10T11:38:57.270Z,2.70
2023-04-10T11:41:31.862Z,2.27
2023-04-10T11:44:00.408Z,2.67
2023-04-10T11:46:28.820Z,2.23
2023-04-10T11:48:59.241Z,2.40
2023-04-10T11:51:28.278Z,2.07
2023-04-10T11:54:07.470Z,2.10
2023-04-10T11:56:37.389Z,2.30
2023-04-10T11:59:07.865Z,2.37
2023-04-10T12:01:36.132Z,2.67
2023-04-10T12:04:04.996Z,2.40
2023-04-10T12:06:33.227Z,2.40
2023-04-10T12:09:01.127Z,2.40
2023-04-10T12:11:29.690Z,2.03
2023-04-10T12:13:59.229Z,1.80
2023-04-10T12:16:27.703Z,2.37
2023-04-10T12:18:56.403Z,1.80
2023-04-10T12:21:24.554Z,1.60
2023-04-10T12:23:53.009Z,2.27
2023-04-10T12:26:21.591Z,2.00
2023-04-10T12:28:54.884Z,1.90
2023-04-10T12:31:31.828Z,2.40
2023-04-10T12:34:00.870Z,1.87
2023-04-10T12:36:30.199Z,1.93
2023-04-10T12:38:59.296Z,2.50
2023-04-10T12:41:30.496Z,2.10
2023-04-10T12:44:09.427Z,1.90
2023-04-10T12:46:39.170Z,1.93
2023-04-10T12:49:11.361Z,1.90
2023-04-10T12:51:46.678Z,2.17
2023-04-10T12:54:29.287Z,1.93
2023-04-10T12:56:57.675Z,2.00
2023-04-10T12:59:26.565Z,1.87
2023-04-10T13:01:56.535Z,2.20
2023-04-10T13:04:24.902Z,1.53
2023-04-10T13:06:53.602Z,1.57
2023-04-10T13:09:22.328Z,1.87
2023-04-10T13:11:52.337Z,1.70
2023-04-10T13:14:20.291Z,1.60
2023-04-10T13:16:48.571Z,1.60
2023-04-10T13:19:18.042Z,1.90
2023-04-10T13:21:46.032Z,1.90
2023-04-10T13:24:16.429Z,1.77
2023-04-10T13:26:44.766Z,1.80
2023-04-10T13:29:12.835Z,1.30
2023-04-10T13:31:40.993Z,1.90
2023-04-10T13:34:09.060Z,2.00
2023-04-10T13:36:38.449Z,1.70
2023-04-10T13:39:06.480Z,1.90
2023-04-10T13:41:34.455Z,1.80
2023-04-10T13:44:02.406Z,1.80
2023-04-10T13:46:30.595Z,1.57
2023-04-10T13:48:58.764Z,1.70
2023-04-10T13:51:27.837Z,1.90
2023-04-10T13:53:57.244Z,1.70
2023-04-10T13:56:25.394Z,1.80
2023-04-10T13:58:53.498Z,1.60
2023-04-10T14:01:21.737Z,1.60
2023-04-10T14:03:49.925Z,1.83
2023-04-10T14:06:17.944Z,1.37
2023-04-10T14:08:45.894Z,1.53
2023-04-10T14:11:15.261Z,1.40
2023-04-10T14:13:43.218Z,1.40
2023-04-10T14:16:11.841Z,1.43
2023-04-10T14:18:39.884Z,1.60
2023-04-10T14:21:08.312Z,1.60
2023-04-10T14:23:36.281Z,1.60
2023-04-10T14:26:06.159Z,1.23
2023-04-10T14:28:35.665Z,1.10
2023-04-10T14:31:03.682Z,1.63
2023-04-10T14:33:31.661Z,1.27
2023-04-10T14:35:59.798Z,1.40
2023-04-10T14:38:27.830Z,1.30
2023-04-10T14:40:55.841Z,1.20
2023-04-10T14:43:23.880Z,1.13
2023-04-10T14:45:53.178Z,1.33
2023-04-10T14:48:21.487Z,1.37
2023-04-10T14:50:49.622Z,1.50
2023-04-10T14:53:17.760Z,1.30
2023-04-10T14:55:45.818Z,1.03
2023-04-10T14:58:13.692Z,1.23
2023-04-10T15:00:42.521Z,1.47
2023-04-10T15:03:11.908Z,1.50
2023-04-10T15:05:39.912Z,1.00
2023-04-10T15:08:07.850Z,1.20
2023-04-10T15:10:35.833Z,1.40
2023-04-10T15:13:03.803Z,1.50
2023-04-10T15:15:31.780Z,1.10
2023-04-10T15:17:59.765Z,1.33
2023-04-10T15:20:29.095Z,1.20
2023-04-10T15:22:58.492Z,1.00
2023-04-10T15:25:26.483Z,1.00
2023-04-10T15:27:56.244Z,1.13
2023-04-10T15:30:24.450Z,1.23
2023-04-10T15:32:52.513Z,1.13
2023-04-10T15:35:21.268Z,1.10
2023-04-10T15:37:50.571Z,1.00
2023-04-10T15:40:18.717Z,1.00
2023-04-10T15:42:46.626Z,0.93
2023-04-10T15:45:14.565Z,1.03
2023-04-10T15:47:42.450Z,1.27
2023-04-10T15:50:11.212Z,0.80
2023-04-10T15:52:39.126Z,1.00
2023-04-10T15:55:09.224Z,1.20
2023-04-10T15:57:37.357Z,1.20
2023-04-10T16:00:06.696Z,1.20
2023-04-10T16:02:35.033Z,0.90
2023-04-10T16:05:03.147Z,1.00
2023-04-10T16:07:31.348Z,1.03
2023-04-10T16:09:59.299Z,0.97
2023-04-10T16:12:28.559Z,1.00
2023-04-10T16:14:56.571Z,1.00
2023-04-10T16:17:24.520Z,1.00
2023-04-10T16:19:52.430Z,1.00
2023-04-10T16:22:20.414Z,1.20
2023-04-10T16:24:48.391Z,1.00
2023-04-10T16:27:16.368Z,0.90
2023-04-10T16:29:45.669Z,1.20
2023-04-10T16:32:13.569Z,1.10
2023-04-10T16:34:41.516Z,0.90
2023-04-10T16:37:09.418Z,0.93
2023-04-10T16:39:37.396Z,1.10
2023-04-10T16:42:05.369Z,1.33
2023-04-10T16:44:33.517Z,1.03
2023-04-10T16:47:02.920Z,0.90
2023-04-10T16:49:31.475Z,1.00
2023-04-10T16:51:59.408Z,1.00
2023-04-10T16:54:27.364Z,1.37
2023-04-10T16:56:55.619Z,1.00
2023-04-10T16:59:23.501Z,0.90
2023-04-10T17:01:52.772Z,1.20
2023-04-10T17:04:22.262Z,1.10
2023-04-10T17:06:50.285Z,1.20
2023-04-10T17:09:18.289Z,0.90
2023-04-10T17:11:46.236Z,1.07
2023-04-10T17:14:16.083Z,1.27
2023-04-10T17:16:44.087Z,1.13
2023-04-10T17:19:12.148Z,1.20
2023-04-10T17:21:41.411Z,1.00
2023-04-10T17:24:09.333Z,1.20
2023-04-10T17:26:37.257Z,1.00
2023-04-10T17:29:05.188Z,0.90
2023-04-10T17:31:33.188Z,1.10
2023-04-10T17:34:01.240Z,1.30
2023-04-10T17:36:29.198Z,1.10
2023-04-10T17:38:58.620Z,0.80
2023-04-10T17:41:26.772Z,0.97
2023-04-10T17:43:54.784Z,1.00
2023-04-10T17:46:22.709Z,1.43
2023-04-10T17:48:50.671Z,1.00
2023-04-10T17:51:18.561Z,0.90
2023-04-10T17:53:47.070Z,1.00
2023-04-10T17:56:20.820Z,1.03
2023-04-10T17:58:48.926Z,1.17
2023-04-10T18:01:22.833Z,1.17
2023-04-10T18:03:50.988Z,1.00
2023-04-10T18:06:18.955Z,0.90
2023-04-10T18:08:46.919Z,0.97
2023-04-10T18:11:14.892Z,1.23
2023-04-10T18:13:44.169Z,1.33
2023-04-10T18:16:12.120Z,1.50
2023-04-10T18:18:41.863Z,1.10
2023-04-10T18:21:10.690Z,1.03
2023-04-10T18:23:39.428Z,1.27
2023-04-10T18:26:07.793Z,1.00
2023-04-10T18:28:36.297Z,0.93
2023-04-10T18:31:06.366Z,1.07
2023-04-10T18:33:34.395Z,1.17
2023-04-10T18:36:03.362Z,1.00
2023-04-10T18:38:31.596Z,1.30
2023-04-10T18:40:59.623Z,1.30
2023-04-10T18:43:28.319Z,1.33
2023-04-10T18:45:56.559Z,1.10
2023-04-10T18:48:25.852Z,1.30
2023-04-10T18:50:54.115Z,1.17
2023-04-10T18:53:22.501Z,1.17
2023-04-10T18:55:51.812Z,1.53
2023-04-10T18:58:20.369Z,1.50
2023-04-10T19:00:48.331Z,1.50
2023-04-10T19:03:16.698Z,1.47
2023-04-10T19:05:46.274Z,1.20
2023-04-10T19:08:15.645Z,1.60
2023-04-10T19:10:43.725Z,1.57
2023-04-10T19:13:12.533Z,1.37
2023-04-10T19:15:42.389Z,1.50
2023-04-10T19:18:13.031Z,1.30
2023-04-10T19:20:51.084Z,1.60
2023-04-10T19:23:22.802Z,1.63
2023-04-10T19:25:53.273Z,1.90
2023-04-10T19:28:21.351Z,1.53
2023-04-10T19:30:49.260Z,1.40
2023-04-10T19:33:17.299Z,1.60
2023-04-10T19:35:45.540Z,1.30
2023-04-10T19:38:13.499Z,1.60
2023-04-10T19:40:44.354Z,1.53
2023-04-10T19:43:12.413Z,2.13
2023-04-10T19:45:40.837Z,1.60
2023-04-10T19:48:09.670Z,1.40
2023-04-10T19:50:37.556Z,1.67
2023-04-10T19:53:05.620Z,2.00
2023-04-10T19:55:34.300Z,1.50
2023-04-10T19:58:03.647Z,1.80
2023-04-10T20:00:31.583Z,1.40
2023-04-10T20:02:59.698Z,1.50
2023-04-10T20:05:27.915Z,1.90
2023-04-10T20:07:55.870Z,1.80
2023-04-10T20:10:23.997Z,2.30
2023-04-10T20:12:51.908Z,2.00
2023-04-10T20:15:21.531Z,1.60
2023-04-10T20:17:49.548Z,1.70
2023-04-10T20:20:17.802Z,1.80
2023-04-10T20:22:45.694Z,1.57
2023-04-10T20:25:13.603Z,1.97
2023-04-10T20:27:41.467Z,1.60
2023-04-10T20:30:10.119Z,1.63
2023-04-10T20:32:39.415Z,1.60
2023-04-10T20:35:08.553Z,1.70
2023-04-10T20:37:36.455Z,1.63
2023-04-10T20:40:04.553Z,1.70
2023-04-10T20:42:32.515Z,1.37
2023-04-10T20:45:00.424Z,2.00
2023-04-10T20:47:29.621Z,1.80
2023-04-10T20:49:58.862Z,2.03
2023-04-10T20:52:26.891Z,1.90
2023-04-10T20:54:54.809Z,2.00
2023-04-10T20:57:23.756Z,2.07
2023-04-10T20:59:51.754Z,1.60
2023-04-10T21:02:19.839Z,1.60
2023-04-10T21:04:48.063Z,2.10
2023-04-10T21:07:17.305Z,2.10
2023-04-10T21:09:45.706Z,1.70
2023-04-10T21:12:13.639Z,2.00
2023-04-10T21:14:45.763Z,2.10
2023-04-10T21:17:13.690Z,1.70
2023-04-10T21:19:41.640Z,1.67
2023-04-10T21:22:10.205Z,2.40
2023-04-10T21:24:39.508Z,1.70
2023-04-10T21:27:08.036Z,1.90
2023-04-10T21:29:35.999Z,1.23
2023-04-10T21:32:04.072Z,2.03
2023-04-10T21:34:31.987Z,1.67
2023-04-10T21:37:01.630Z,1.80
2023-04-10T21:39:30.192Z,2.50
2023-04-10T21:41:59.467Z,1.90
2023-04-10T21:44:27.433Z,1.90
2023-04-10T21:46:55.327Z,1.67
2023-04-10T21:49:23.263Z,2.00
2023-04-10T21:51:51.168Z,2.00
2023-04-10T21:54:19.127Z,1.90
2023-04-10T21:56:47.089Z,1.90
2023-04-10T21:59:16.361Z,1.77
2023-04-10T22:01:44.392Z,1.77
2023-04-10T22:04:12.698Z,1.63
2023-04-10T22:06:40.870Z,1.60
2023-04-10T22:09:10.254Z,2.03
2023-04-10T22:11:39.384Z,2.10
2023-04-10T22:14:15.388Z,1.83
2023-04-10T22:16:46.728Z,1.63
2023-04-10T22:19:14.749Z,1.90
2023-04-10T22:21:42.712Z,1.70
2023-04-10T22:24:10.624Z,1.97
2023-04-10T22:26:38.515Z,1.83
2023-04-10T22:29:06.443Z,1.80
2023-04-10T22:31:34.391Z,2.27
2023-04-10T22:34:03.734Z,1.90
2023-04-10T22:36:34.481Z,1.90
2023-04-10T22:39:02.870Z,2.10
2023-04-10T22:41:31.721Z,1.77
2023-04-10T22:44:00.192Z,1.53
2023-04-10T22:46:28.118Z,1.80
2023-04-10T22:48:57.185Z,1.90
2023-04-10T22:51:26.728Z,1.77
2023-04-10T22:53:54.883Z,1.83
2023-04-10T22:56:24.925Z,1.70
2023-04-10T22:58:53.498Z,1.60
2023-04-10T23:01:21.658Z,1.47
2023-04-10T23:03:52.658Z,1.90
2023-04-10T23:06:21.099Z,1.53
2023-04-10T23:08:50.404Z,1.70
2023-04-10T23:11:18.317Z,1.80
2023-04-10T23:13:46.232Z,1.70
2023-04-10T23:16:14.183Z,1.80
2023-04-10T23:18:42.538Z,1.90
2023-04-10T23:21:10.656Z,2.00
2023-04-10T23:23:38.595Z,1.83
2023-04-10T23:26:08.618Z,1.60
2023-04-10T23:28:36.586Z,1.60
2023-04-10T23:31:04.548Z,1.50
2023-04-10T23:33:32.767Z,1.50
2023-04-10T23:36:00.675Z,1.33
2023-04-10T23:38:28.624Z,1.50
2023-04-10T23:40:56.566Z,1.83
2023-04-10T23:43:25.973Z,1.50
2023-04-10T23:45:53.862Z,1.60
2023-04-10T23:48:21.758Z,1.60
2023-04-10T23:50:49.626Z,1.77
2023-04-10T23:53:17.588Z,1.60
2023-04-10T23:55:45.575Z,2.00
2023-04-10T23:58:13.457Z,2.07
